RYR72ZY LPPT-LFOB
Flight info
| Callsign | RYR72ZY |
|---|---|
| Flight time | 2h 5m |
| Altitude | 36000 |
| Route | IXIDA DCT BALNO DCT LOTEE DCT AZFIC UN741 MOKOR UN873 OLEBA/N0433F340 UN873 BAKUL/N0381F260 UN873 RONAX/N0337F180 J55 LGL Z295 PEXIR |
| Aircraft | B738/M-SDGIJ1LRWY/SB1 |
Departure
| Time | 2026-05-08 10:29 |
|---|---|
| Airport | Lisbon Humberto Delgado Airport (LPPT) |
Arrival
| Time | 2026-05-08 12:34 |
|---|---|
| Airport | Beauvais-Tillé airport (LFOB) |
| Time | Latitude | Longitude | Altitude | Speed | Heading |
|---|---|---|---|---|---|
| 2026-05-08 09:55 | 38.76454 | -9.13777 | 357 ft | 0 kts | 167° |
| 2026-05-08 10:19 | 38.76469 | -9.13782 | 358 ft | 4 kts | 167° |
| 2026-05-08 10:19 | 38.76490 | -9.13788 | 356 ft | 4 kts | 165° |
| 2026-05-08 10:19 | 38.76514 | -9.13800 | 356 ft | 4 kts | 139° |
| 2026-05-08 10:20 | 38.76521 | -9.13855 | 352 ft | 2 kts | 78° |
| 2026-05-08 10:20 | 38.76520 | -9.13856 | 352 ft | 0 kts | 78° |
| 2026-05-08 10:23 | 38.76525 | -9.13829 | 355 ft | 6 kts | 78° |
| 2026-05-08 10:23 | 38.76536 | -9.13757 | 353 ft | 10 kts | 79° |
| 2026-05-08 10:23 | 38.76564 | -9.13673 | 353 ft | 11 kts | 31° |
| 2026-05-08 10:24 | 38.76628 | -9.13644 | 354 ft | 10 kts | 64° |
| 2026-05-08 10:24 | 38.76644 | -9.13552 | 359 ft | 11 kts | 78° |
| 2026-05-08 10:24 | 38.76672 | -9.13454 | 353 ft | 13 kts | 51° |
| 2026-05-08 10:24 | 38.76747 | -9.13384 | 351 ft | 14 kts | 33° |
| 2026-05-08 10:25 | 38.76841 | -9.13380 | 351 ft | 15 kts | 348° |
| 2026-05-08 10:25 | 38.76973 | -9.13416 | 355 ft | 23 kts | 348° |
| 2026-05-08 10:25 | 38.77153 | -9.13465 | 350 ft | 29 kts | 349° |
| 2026-05-08 10:25 | 38.77344 | -9.13514 | 350 ft | 27 kts | 348° |
| 2026-05-08 10:26 | 38.77523 | -9.13563 | 357 ft | 26 kts | 348° |
| 2026-05-08 10:26 | 38.77657 | -9.13599 | 355 ft | 17 kts | 353° |
| 2026-05-08 10:26 | 38.77765 | -9.13563 | 355 ft | 16 kts | 22° |
| 2026-05-08 10:26 | 38.77869 | -9.13506 | 360 ft | 17 kts | 22° |
| 2026-05-08 10:27 | 38.77989 | -9.13441 | 354 ft | 20 kts | 22° |
| 2026-05-08 10:27 | 38.78127 | -9.13368 | 355 ft | 22 kts | 22° |
| 2026-05-08 10:27 | 38.78263 | -9.13293 | 356 ft | 21 kts | 23° |
| 2026-05-08 10:27 | 38.78397 | -9.13227 | 354 ft | 20 kts | 17° |
| 2026-05-08 10:28 | 38.78525 | -9.13266 | 354 ft | 19 kts | 314° |
| 2026-05-08 10:28 | 38.78531 | -9.13378 | 352 ft | 14 kts | 217° |
| 2026-05-08 10:28 | 38.78319 | -9.13493 | 356 ft | 66 kts | 202° |
| 2026-05-08 10:28 | 38.77727 | -9.13810 | 356 ft | 129 kts | 202° |
| 2026-05-08 10:29 | 38.76705 | -9.14362 | 578 ft | 164 kts | 200° |
| 2026-05-08 10:29 | 38.75662 | -9.14920 | 1369 ft | 164 kts | 201° |
| 2026-05-08 10:29 | 38.74571 | -9.15494 | 1993 ft | 179 kts | 202° |
| 2026-05-08 10:29 | 38.73361 | -9.16138 | 2425 ft | 200 kts | 202° |
| 2026-05-08 10:30 | 38.72008 | -9.16884 | 2702 ft | 221 kts | 208° |
| 2026-05-08 10:30 | 38.70914 | -9.18215 | 3561 ft | 219 kts | 238° |
| 2026-05-08 10:30 | 38.70529 | -9.20119 | 4328 ft | 228 kts | 270° |
| 2026-05-08 10:30 | 38.70985 | -9.22092 | 5088 ft | 236 kts | 295° |
| 2026-05-08 10:31 | 38.71898 | -9.23847 | 5806 ft | 247 kts | 312° |
| 2026-05-08 10:31 | 38.73473 | -9.24962 | 6082 ft | 275 kts | 349° |
| 2026-05-08 10:31 | 38.75381 | -9.24699 | 6770 ft | 282 kts | 24° |
| 2026-05-08 10:31 | 38.77063 | -9.23410 | 7593 ft | 282 kts | 34° |
| 2026-05-08 10:32 | 38.78736 | -9.22034 | 8296 ft | 288 kts | 32° |
| 2026-05-08 10:32 | 38.80461 | -9.20708 | 9082 ft | 291 kts | 30° |
| 2026-05-08 10:32 | 38.82236 | -9.19384 | 9779 ft | 297 kts | 30° |
| 2026-05-08 10:32 | 38.84032 | -9.18062 | 10331 ft | 307 kts | 29° |
| 2026-05-08 10:33 | 38.85984 | -9.16635 | 10523 ft | 330 kts | 29° |
| 2026-05-08 10:33 | 38.88044 | -9.15133 | 10817 ft | 348 kts | 29° |
| 2026-05-08 10:33 | 38.90148 | -9.13600 | 11403 ft | 355 kts | 29° |
| 2026-05-08 10:33 | 38.92297 | -9.12036 | 12204 ft | 355 kts | 28° |
| 2026-05-08 10:34 | 38.94460 | -9.10464 | 12914 ft | 359 kts | 28° |
| 2026-05-08 10:34 | 38.96642 | -9.08876 | 13648 ft | 362 kts | 28° |
| 2026-05-08 10:34 | 38.98847 | -9.07272 | 14264 ft | 366 kts | 28° |
| 2026-05-08 10:34 | 39.01101 | -9.05631 | 14924 ft | 369 kts | 28° |
| 2026-05-08 10:35 | 39.03311 | -9.04021 | 15603 ft | 371 kts | 28° |
| 2026-05-08 10:35 | 39.05569 | -9.02377 | 16233 ft | 375 kts | 27° |
| 2026-05-08 10:35 | 39.07848 | -9.00716 | 16836 ft | 378 kts | 27° |
| 2026-05-08 10:35 | 39.10148 | -8.99037 | 17433 ft | 382 kts | 27° |
| 2026-05-08 10:36 | 39.12465 | -8.97344 | 18076 ft | 384 kts | 27° |
| 2026-05-08 10:36 | 39.14797 | -8.95641 | 18608 ft | 388 kts | 27° |
| 2026-05-08 10:36 | 39.17160 | -8.93913 | 19125 ft | 391 kts | 27° |
| 2026-05-08 10:36 | 39.19532 | -8.92174 | 19666 ft | 394 kts | 27° |
| 2026-05-08 10:37 | 39.21920 | -8.90421 | 20189 ft | 396 kts | 27° |
| 2026-05-08 10:37 | 39.24327 | -8.88656 | 20700 ft | 399 kts | 26° |
| 2026-05-08 10:37 | 39.26752 | -8.86875 | 21205 ft | 403 kts | 26° |
| 2026-05-08 10:37 | 39.29193 | -8.85082 | 21719 ft | 405 kts | 26° |
| 2026-05-08 10:38 | 39.31648 | -8.83277 | 22222 ft | 407 kts | 26° |
| 2026-05-08 10:38 | 39.34121 | -8.81458 | 22706 ft | 410 kts | 26° |
| 2026-05-08 10:38 | 39.36606 | -8.79629 | 23183 ft | 413 kts | 26° |
| 2026-05-08 10:38 | 39.39110 | -8.77784 | 23649 ft | 415 kts | 26° |
| 2026-05-08 10:39 | 39.41631 | -8.75924 | 24024 ft | 418 kts | 25° |
| 2026-05-08 10:39 | 39.44170 | -8.74051 | 24373 ft | 422 kts | 25° |
| 2026-05-08 10:39 | 39.46725 | -8.72163 | 24747 ft | 424 kts | 25° |
| 2026-05-08 10:39 | 39.49288 | -8.70268 | 25121 ft | 426 kts | 25° |
| 2026-05-08 10:40 | 39.51869 | -8.68358 | 25486 ft | 429 kts | 25° |
| 2026-05-08 10:40 | 39.54467 | -8.66434 | 25846 ft | 431 kts | 25° |
| 2026-05-08 10:40 | 39.57084 | -8.64494 | 26197 ft | 433 kts | 25° |
| 2026-05-08 10:40 | 39.59702 | -8.62551 | 26569 ft | 436 kts | 25° |
| 2026-05-08 10:41 | 39.62345 | -8.60588 | 26910 ft | 438 kts | 25° |
| 2026-05-08 10:41 | 39.64991 | -8.58621 | 27252 ft | 440 kts | 24° |
| 2026-05-08 10:41 | 39.67656 | -8.56638 | 27579 ft | 443 kts | 24° |
| 2026-05-08 10:41 | 39.70333 | -8.54645 | 27938 ft | 444 kts | 24° |
| 2026-05-08 10:42 | 39.73018 | -8.52644 | 28278 ft | 446 kts | 24° |
| 2026-05-08 10:42 | 39.75715 | -8.50631 | 28587 ft | 448 kts | 24° |
| 2026-05-08 10:42 | 39.78425 | -8.48608 | 28886 ft | 450 kts | 24° |
| 2026-05-08 10:42 | 39.81145 | -8.46575 | 29210 ft | 452 kts | 24° |
| 2026-05-08 10:43 | 39.83743 | -8.44631 | 29505 ft | 453 kts | 24° |
| 2026-05-08 10:43 | 39.86481 | -8.42582 | 29811 ft | 455 kts | 24° |
| 2026-05-08 10:43 | 39.89229 | -8.40522 | 30080 ft | 457 kts | 24° |
| 2026-05-08 10:43 | 39.91985 | -8.38454 | 30343 ft | 457 kts | 24° |
| 2026-05-08 10:44 | 39.94742 | -8.36383 | 30613 ft | 458 kts | 24° |
| 2026-05-08 10:44 | 39.97495 | -8.34313 | 30910 ft | 458 kts | 24° |
| 2026-05-08 10:44 | 39.99322 | -8.32938 | 31134 ft | 457 kts | 24° |
| 2026-05-08 10:44 | 40.00611 | -8.31968 | 31326 ft | 456 kts | 24° |
| 2026-05-08 10:45 | 40.03344 | -8.29907 | 31695 ft | 454 kts | 24° |
| 2026-05-08 10:45 | 40.06074 | -8.27848 | 32000 ft | 453 kts | 24° |
| 2026-05-08 10:45 | 40.08767 | -8.25816 | 32285 ft | 453 kts | 24° |
| 2026-05-08 10:45 | 40.11492 | -8.23759 | 32612 ft | 452 kts | 24° |
| 2026-05-08 10:46 | 40.14206 | -8.21707 | 32963 ft | 450 kts | 24° |
| 2026-05-08 10:46 | 40.16912 | -8.19660 | 33256 ft | 449 kts | 24° |
| 2026-05-08 10:46 | 40.19617 | -8.17612 | 33509 ft | 449 kts | 24° |
| 2026-05-08 10:46 | 40.22320 | -8.15564 | 33800 ft | 448 kts | 24° |
| 2026-05-08 10:47 | 40.25015 | -8.13519 | 34064 ft | 447 kts | 24° |
| 2026-05-08 10:47 | 40.27708 | -8.11474 | 34257 ft | 448 kts | 24° |
| 2026-05-08 10:47 | 40.30404 | -8.09427 | 34402 ft | 450 kts | 24° |
| 2026-05-08 10:47 | 40.33115 | -8.07365 | 34612 ft | 449 kts | 24° |
| 2026-05-08 10:48 | 40.35816 | -8.05308 | 34846 ft | 449 kts | 24° |
| 2026-05-08 10:48 | 40.38512 | -8.03253 | 35015 ft | 450 kts | 24° |
| 2026-05-08 10:48 | 40.41220 | -8.01188 | 35164 ft | 451 kts | 25° |
| 2026-05-08 10:48 | 40.43932 | -7.99117 | 35340 ft | 451 kts | 25° |
| 2026-05-08 10:49 | 40.46642 | -7.97045 | 35554 ft | 451 kts | 25° |
| 2026-05-08 10:49 | 40.49353 | -7.94970 | 35703 ft | 451 kts | 25° |
| 2026-05-08 10:49 | 40.52071 | -7.92889 | 35843 ft | 453 kts | 25° |
| 2026-05-08 10:50 | 40.57480 | -7.88738 | 35932 ft | 449 kts | 25° |
| 2026-05-08 10:50 | 40.62897 | -7.84578 | 35939 ft | 452 kts | 26° |
| 2026-05-08 10:51 | 40.68349 | -7.80383 | 35945 ft | 455 kts | 26° |
| 2026-05-08 10:51 | 40.73826 | -7.76158 | 35937 ft | 457 kts | 26° |
| 2026-05-08 10:52 | 40.79314 | -7.71916 | 35936 ft | 457 kts | 26° |
| 2026-05-08 10:52 | 40.84795 | -7.67671 | 35930 ft | 456 kts | 26° |
| 2026-05-08 10:53 | 40.90248 | -7.63439 | 35926 ft | 454 kts | 26° |
| 2026-05-08 10:53 | 40.95682 | -7.59215 | 35914 ft | 452 kts | 26° |
| 2026-05-08 10:54 | 41.01085 | -7.55007 | 35911 ft | 449 kts | 27° |
| 2026-05-08 10:54 | 41.06424 | -7.50841 | 35910 ft | 447 kts | 27° |
| 2026-05-08 10:55 | 41.11771 | -7.46661 | 35906 ft | 446 kts | 27° |
| 2026-05-08 10:55 | 41.17137 | -7.42458 | 35905 ft | 444 kts | 27° |
| 2026-05-08 10:56 | 41.22456 | -7.38285 | 35932 ft | 444 kts | 27° |
| 2026-05-08 10:56 | 41.27743 | -7.34129 | 35914 ft | 444 kts | 27° |
| 2026-05-08 10:57 | 41.33103 | -7.29906 | 35910 ft | 445 kts | 27° |
| 2026-05-08 10:57 | 41.41057 | -7.23624 | 35926 ft | 445 kts | 27° |
| 2026-05-08 10:58 | 41.46385 | -7.19407 | 35917 ft | 445 kts | 27° |
| 2026-05-08 10:58 | 41.51741 | -7.15158 | 35930 ft | 445 kts | 27° |
| 2026-05-08 10:59 | 41.57034 | -7.10952 | 35918 ft | 446 kts | 27° |
| 2026-05-08 10:59 | 41.62363 | -7.06708 | 35924 ft | 446 kts | 27° |
| 2026-05-08 11:00 | 41.67691 | -7.02457 | 35918 ft | 446 kts | 27° |
| 2026-05-08 11:00 | 41.73062 | -6.98312 | 35906 ft | 444 kts | 21° |
| 2026-05-08 11:01 | 41.78881 | -6.95836 | 35924 ft | 438 kts | 12° |
| 2026-05-08 11:01 | 41.84779 | -6.93740 | 35923 ft | 438 kts | 12° |
| 2026-05-08 11:02 | 41.93612 | -6.90496 | 35917 ft | 439 kts | 12° |
| 2026-05-08 11:03 | 41.99498 | -6.88291 | 35916 ft | 439 kts | 12° |
| 2026-05-08 11:03 | 42.05392 | -6.86075 | 35909 ft | 440 kts | 12° |
| 2026-05-08 11:04 | 42.11285 | -6.83855 | 35900 ft | 440 kts | 12° |
| 2026-05-08 11:04 | 42.17189 | -6.81628 | 35903 ft | 440 kts | 12° |
| 2026-05-08 11:05 | 42.23082 | -6.79405 | 35903 ft | 440 kts | 12° |
| 2026-05-08 11:05 | 42.28968 | -6.77174 | 35907 ft | 440 kts | 13° |
| 2026-05-08 11:06 | 42.34873 | -6.74933 | 35898 ft | 441 kts | 13° |
| 2026-05-08 11:06 | 42.40786 | -6.72685 | 35896 ft | 442 kts | 13° |
| 2026-05-08 11:07 | 42.45710 | -6.70810 | 35885 ft | 443 kts | 13° |
| 2026-05-08 11:07 | 42.52621 | -6.68174 | 35892 ft | 444 kts | 13° |
| 2026-05-08 11:08 | 42.57604 | -6.66269 | 35895 ft | 445 kts | 13° |
| 2026-05-08 11:08 | 42.63566 | -6.63985 | 35907 ft | 446 kts | 13° |
| 2026-05-08 11:09 | 42.69546 | -6.61691 | 35897 ft | 447 kts | 13° |
| 2026-05-08 11:09 | 42.75536 | -6.59387 | 35905 ft | 448 kts | 13° |
| 2026-05-08 11:10 | 42.81529 | -6.57078 | 35902 ft | 448 kts | 13° |
| 2026-05-08 11:10 | 42.87496 | -6.54774 | 35905 ft | 449 kts | 14° |
| 2026-05-08 11:11 | 42.93518 | -6.52445 | 35903 ft | 449 kts | 14° |
| 2026-05-08 11:11 | 42.99530 | -6.50114 | 35904 ft | 450 kts | 14° |
| 2026-05-08 11:12 | 43.05557 | -6.47773 | 35894 ft | 450 kts | 14° |
| 2026-05-08 11:12 | 43.11588 | -6.45426 | 35899 ft | 451 kts | 14° |
| 2026-05-08 11:13 | 43.17626 | -6.43073 | 35892 ft | 451 kts | 14° |
| 2026-05-08 11:13 | 43.23668 | -6.40715 | 35893 ft | 452 kts | 14° |
| 2026-05-08 11:14 | 43.29710 | -6.38345 | 35893 ft | 452 kts | 14° |
| 2026-05-08 11:14 | 43.35760 | -6.35969 | 35894 ft | 453 kts | 14° |
| 2026-05-08 11:15 | 43.41824 | -6.33588 | 35894 ft | 454 kts | 15° |
| 2026-05-08 11:15 | 43.47899 | -6.31196 | 35879 ft | 454 kts | 15° |
| 2026-05-08 11:16 | 43.53969 | -6.28796 | 35894 ft | 453 kts | 15° |
| 2026-05-08 11:16 | 43.60027 | -6.26398 | 35880 ft | 453 kts | 15° |
| 2026-05-08 11:17 | 43.66086 | -6.23993 | 35888 ft | 453 kts | 15° |
| 2026-05-08 11:17 | 43.72102 | -6.21602 | 35890 ft | 453 kts | 15° |
| 2026-05-08 11:18 | 43.78158 | -6.19193 | 35898 ft | 453 kts | 15° |
| 2026-05-08 11:18 | 43.84220 | -6.16773 | 35892 ft | 454 kts | 15° |
| 2026-05-08 11:19 | 43.90291 | -6.14347 | 35900 ft | 455 kts | 15° |
| 2026-05-08 11:19 | 43.96410 | -6.11895 | 35902 ft | 456 kts | 15° |
| 2026-05-08 11:20 | 44.02469 | -6.09464 | 35894 ft | 457 kts | 15° |
| 2026-05-08 11:20 | 44.08583 | -6.07001 | 35890 ft | 458 kts | 15° |
| 2026-05-08 11:21 | 44.14715 | -6.04528 | 35900 ft | 459 kts | 15° |
| 2026-05-08 11:21 | 44.20872 | -6.02041 | 35884 ft | 461 kts | 15° |
| 2026-05-08 11:22 | 44.27033 | -5.99546 | 35891 ft | 462 kts | 16° |
| 2026-05-08 11:22 | 44.33217 | -5.97030 | 35901 ft | 464 kts | 16° |
| 2026-05-08 11:23 | 44.39427 | -5.94505 | 35869 ft | 465 kts | 16° |
| 2026-05-08 11:23 | 44.45638 | -5.91970 | 35889 ft | 465 kts | 16° |
| 2026-05-08 11:24 | 44.51846 | -5.89431 | 35873 ft | 465 kts | 16° |
| 2026-05-08 11:24 | 44.58050 | -5.86890 | 35883 ft | 464 kts | 16° |
| 2026-05-08 11:25 | 44.64135 | -5.84095 | 35861 ft | 462 kts | 25° |
| 2026-05-08 11:25 | 44.69416 | -5.79106 | 35859 ft | 456 kts | 45° |
| 2026-05-08 11:26 | 44.73894 | -5.72834 | 35870 ft | 453 kts | 46° |
| 2026-05-08 11:26 | 44.78363 | -5.66609 | 35868 ft | 451 kts | 45° |
| 2026-05-08 11:27 | 44.82842 | -5.60428 | 35869 ft | 450 kts | 45° |
| 2026-05-08 11:27 | 44.87325 | -5.54256 | 35706 ft | 451 kts | 47° |
| 2026-05-08 11:28 | 44.91800 | -5.48092 | 35828 ft | 449 kts | 47° |
| 2026-05-08 11:28 | 44.96266 | -5.41901 | 35874 ft | 451 kts | 47° |
| 2026-05-08 11:29 | 45.00725 | -5.35705 | 35876 ft | 455 kts | 47° |
| 2026-05-08 11:29 | 45.05251 | -5.29408 | 35875 ft | 458 kts | 47° |
| 2026-05-08 11:30 | 45.09806 | -5.23059 | 35875 ft | 461 kts | 47° |
| 2026-05-08 11:30 | 45.14380 | -5.16667 | 35871 ft | 463 kts | 47° |
| 2026-05-08 11:31 | 45.18962 | -5.10250 | 35864 ft | 463 kts | 47° |
| 2026-05-08 11:31 | 45.23538 | -5.03826 | 35862 ft | 462 kts | 47° |
| 2026-05-08 11:32 | 45.28098 | -4.97408 | 35862 ft | 461 kts | 47° |
| 2026-05-08 11:32 | 45.32638 | -4.91002 | 35861 ft | 459 kts | 47° |
| 2026-05-08 11:33 | 45.37157 | -4.84611 | 35869 ft | 457 kts | 47° |
| 2026-05-08 11:33 | 45.41656 | -4.78233 | 35869 ft | 456 kts | 47° |
| 2026-05-08 11:34 | 45.46133 | -4.71870 | 35872 ft | 455 kts | 47° |
| 2026-05-08 11:34 | 45.50608 | -4.65496 | 35876 ft | 454 kts | 47° |
| 2026-05-08 11:35 | 45.55066 | -4.59131 | 35880 ft | 454 kts | 47° |
| 2026-05-08 11:35 | 45.59496 | -4.52790 | 35884 ft | 454 kts | 47° |
| 2026-05-08 11:36 | 45.63963 | -4.46381 | 35890 ft | 455 kts | 47° |
| 2026-05-08 11:36 | 45.68425 | -4.39965 | 35887 ft | 456 kts | 47° |
| 2026-05-08 11:37 | 45.72901 | -4.33512 | 35890 ft | 457 kts | 47° |
| 2026-05-08 11:37 | 45.77378 | -4.27042 | 35891 ft | 458 kts | 47° |
| 2026-05-08 11:38 | 45.81855 | -4.20558 | 35897 ft | 458 kts | 47° |
| 2026-05-08 11:38 | 45.86340 | -4.14046 | 35898 ft | 459 kts | 47° |
| 2026-05-08 11:39 | 45.90830 | -4.07509 | 35904 ft | 459 kts | 47° |
| 2026-05-08 11:39 | 45.95316 | -4.00964 | 35905 ft | 460 kts | 47° |
| 2026-05-08 11:40 | 45.99794 | -3.94414 | 35907 ft | 460 kts | 47° |
| 2026-05-08 11:40 | 46.04273 | -3.87845 | 35914 ft | 460 kts | 47° |
| 2026-05-08 11:41 | 46.08748 | -3.81267 | 35913 ft | 460 kts | 47° |
| 2026-05-08 11:41 | 46.13218 | -3.74681 | 35917 ft | 459 kts | 47° |
| 2026-05-08 11:42 | 46.17682 | -3.68086 | 35919 ft | 459 kts | 47° |
| 2026-05-08 11:42 | 46.22140 | -3.61484 | 35921 ft | 459 kts | 47° |
| 2026-05-08 11:43 | 46.26593 | -3.54873 | 35927 ft | 459 kts | 47° |
| 2026-05-08 11:43 | 46.31042 | -3.48251 | 35931 ft | 459 kts | 47° |
| 2026-05-08 11:44 | 46.35488 | -3.41618 | 35935 ft | 459 kts | 47° |
| 2026-05-08 11:44 | 46.39902 | -3.35016 | 35936 ft | 459 kts | 46° |
| 2026-05-08 11:45 | 46.44373 | -3.28311 | 35942 ft | 459 kts | 46° |
| 2026-05-08 11:45 | 46.48778 | -3.21688 | 35943 ft | 460 kts | 46° |
| 2026-05-08 11:46 | 46.53217 | -3.14999 | 35947 ft | 460 kts | 46° |
| 2026-05-08 11:46 | 46.57519 | -3.08122 | 35936 ft | 460 kts | 55° |
| 2026-05-08 11:47 | 46.60780 | -3.00164 | 35949 ft | 458 kts | 62° |
| 2026-05-08 11:47 | 46.63908 | -2.92081 | 35955 ft | 459 kts | 61° |
| 2026-05-08 11:48 | 46.67090 | -2.84026 | 35952 ft | 459 kts | 60° |
| 2026-05-08 11:48 | 46.70299 | -2.75983 | 35953 ft | 459 kts | 60° |
| 2026-05-08 11:49 | 46.73510 | -2.67927 | 35957 ft | 460 kts | 60° |
| 2026-05-08 11:49 | 46.76709 | -2.59865 | 35955 ft | 460 kts | 60° |
| 2026-05-08 11:50 | 46.79908 | -2.51779 | 35957 ft | 460 kts | 60° |
| 2026-05-08 11:50 | 46.83101 | -2.43681 | 35955 ft | 460 kts | 60° |
| 2026-05-08 11:51 | 46.86270 | -2.35627 | 35956 ft | 460 kts | 60° |
| 2026-05-08 11:51 | 46.89608 | -2.27626 | 35956 ft | 460 kts | 58° |
| 2026-05-08 11:52 | 46.93007 | -2.19695 | 35957 ft | 461 kts | 58° |
| 2026-05-08 11:52 | 46.96375 | -2.11711 | 35956 ft | 461 kts | 58° |
| 2026-05-08 11:53 | 46.99782 | -2.03752 | 35953 ft | 461 kts | 53° |
| 2026-05-08 11:53 | 47.04291 | -1.97162 | 35960 ft | 458 kts | 34° |
| 2026-05-08 11:54 | 47.09460 | -1.91690 | 35967 ft | 459 kts | 35° |
| 2026-05-08 11:54 | 47.14573 | -1.86069 | 35962 ft | 459 kts | 36° |
| 2026-05-08 11:55 | 47.19677 | -1.80410 | 35967 ft | 460 kts | 35° |
| 2026-05-08 11:55 | 47.24797 | -1.74769 | 35964 ft | 460 kts | 35° |
| 2026-05-08 11:56 | 47.29911 | -1.69115 | 35968 ft | 460 kts | 35° |
| 2026-05-08 11:56 | 47.34939 | -1.63288 | 35952 ft | 461 kts | 42° |
| 2026-05-08 11:57 | 47.39005 | -1.55979 | 35968 ft | 462 kts | 51° |
| 2026-05-08 11:57 | 47.42867 | -1.48478 | 35970 ft | 462 kts | 51° |
| 2026-05-08 11:58 | 47.46791 | -1.40973 | 35968 ft | 461 kts | 50° |
| 2026-05-08 11:58 | 47.50733 | -1.33490 | 35976 ft | 461 kts | 50° |
| 2026-05-08 11:59 | 47.56002 | -1.23468 | 35978 ft | 461 kts | 50° |
| 2026-05-08 11:59 | 47.59905 | -1.16016 | 35971 ft | 461 kts | 50° |
| 2026-05-08 12:00 | 47.63831 | -1.08497 | 35982 ft | 461 kts | 50° |
| 2026-05-08 12:00 | 47.67748 | -1.00973 | 35986 ft | 461 kts | 50° |
| 2026-05-08 12:01 | 47.71674 | -0.93415 | 35986 ft | 462 kts | 50° |
| 2026-05-08 12:01 | 47.75590 | -0.85855 | 35993 ft | 462 kts | 50° |
| 2026-05-08 12:02 | 47.79509 | -0.78261 | 35992 ft | 463 kts | 50° |
| 2026-05-08 12:02 | 47.83430 | -0.70644 | 35992 ft | 464 kts | 50° |
| 2026-05-08 12:03 | 47.87353 | -0.63003 | 35995 ft | 464 kts | 50° |
| 2026-05-08 12:03 | 47.91272 | -0.55347 | 35995 ft | 465 kts | 50° |
| 2026-05-08 12:04 | 47.95189 | -0.47672 | 35999 ft | 465 kts | 50° |
| 2026-05-08 12:04 | 47.99109 | -0.39971 | 35461 ft | 475 kts | 49° |
| 2026-05-08 12:05 | 48.00381 | -0.37471 | 35016 ft | 478 kts | 49° |
| 2026-05-08 12:05 | 48.02380 | -0.33531 | 34453 ft | 476 kts | 49° |
| 2026-05-08 12:05 | 48.04382 | -0.29582 | 33818 ft | 476 kts | 49° |
| 2026-05-08 12:05 | 48.06379 | -0.25634 | 33118 ft | 476 kts | 49° |
| 2026-05-08 12:06 | 48.08383 | -0.21700 | 32449 ft | 475 kts | 49° |
| 2026-05-08 12:06 | 48.10404 | -0.17801 | 31789 ft | 474 kts | 48° |
| 2026-05-08 12:06 | 48.12426 | -0.13923 | 31215 ft | 471 kts | 48° |
| 2026-05-08 12:06 | 48.14431 | -0.10077 | 30757 ft | 466 kts | 49° |
| 2026-05-08 12:07 | 48.16413 | -0.06263 | 30292 ft | 462 kts | 49° |
| 2026-05-08 12:07 | 48.18373 | -0.02481 | 29784 ft | 457 kts | 49° |
| 2026-05-08 12:07 | 48.20283 | 0.01218 | 29287 ft | 452 kts | 49° |
| 2026-05-08 12:07 | 48.22193 | 0.04926 | 28818 ft | 446 kts | 49° |
| 2026-05-08 12:08 | 48.24079 | 0.08592 | 28346 ft | 441 kts | 49° |
| 2026-05-08 12:08 | 48.25942 | 0.12218 | 27892 ft | 436 kts | 48° |
| 2026-05-08 12:08 | 48.27785 | 0.15808 | 27435 ft | 432 kts | 48° |
| 2026-05-08 12:08 | 48.29634 | 0.19414 | 26971 ft | 428 kts | 48° |
| 2026-05-08 12:09 | 48.31440 | 0.22941 | 26521 ft | 424 kts | 48° |
| 2026-05-08 12:09 | 48.33202 | 0.26387 | 26091 ft | 421 kts | 48° |
| 2026-05-08 12:09 | 48.34977 | 0.29860 | 25651 ft | 417 kts | 48° |
| 2026-05-08 12:09 | 48.36736 | 0.33306 | 25227 ft | 413 kts | 47° |
| 2026-05-08 12:10 | 48.38677 | 0.36416 | 24790 ft | 403 kts | 33° |
| 2026-05-08 12:10 | 48.40909 | 0.38551 | 24417 ft | 390 kts | 20° |
| 2026-05-08 12:10 | 48.43487 | 0.39940 | 23991 ft | 379 kts | 8° |
| 2026-05-08 12:10 | 48.46041 | 0.40828 | 23585 ft | 375 kts | 7° |
| 2026-05-08 12:11 | 48.48579 | 0.41714 | 23096 ft | 373 kts | 8° |
| 2026-05-08 12:11 | 48.51095 | 0.42616 | 22673 ft | 370 kts | 8° |
| 2026-05-08 12:11 | 48.53588 | 0.43526 | 22254 ft | 368 kts | 8° |
| 2026-05-08 12:11 | 48.56076 | 0.44445 | 21832 ft | 367 kts | 9° |
| 2026-05-08 12:12 | 48.58553 | 0.45363 | 21432 ft | 367 kts | 9° |
| 2026-05-08 12:12 | 48.61056 | 0.46292 | 21031 ft | 374 kts | 9° |
| 2026-05-08 12:12 | 48.63601 | 0.47238 | 20602 ft | 377 kts | 10° |
| 2026-05-08 12:12 | 48.66144 | 0.48188 | 20166 ft | 376 kts | 10° |
| 2026-05-08 12:13 | 48.68672 | 0.49134 | 19749 ft | 373 kts | 11° |
| 2026-05-08 12:13 | 48.71183 | 0.50073 | 19335 ft | 371 kts | 11° |
| 2026-05-08 12:13 | 48.73683 | 0.51008 | 18919 ft | 369 kts | 11° |
| 2026-05-08 12:13 | 48.76175 | 0.51943 | 18504 ft | 368 kts | 12° |
| 2026-05-08 12:14 | 48.78652 | 0.52869 | 18071 ft | 366 kts | 12° |
| 2026-05-08 12:14 | 48.81143 | 0.53613 | 17651 ft | 362 kts | 7° |
| 2026-05-08 12:14 | 48.83626 | 0.54124 | 17236 ft | 359 kts | 5° |
| 2026-05-08 12:14 | 48.86098 | 0.54568 | 16839 ft | 356 kts | 5° |
| 2026-05-08 12:15 | 48.88551 | 0.55004 | 16426 ft | 354 kts | 5° |
| 2026-05-08 12:15 | 48.90985 | 0.55455 | 16039 ft | 351 kts | 5° |
| 2026-05-08 12:15 | 48.93402 | 0.55918 | 15635 ft | 350 kts | 5° |
| 2026-05-08 12:15 | 48.95811 | 0.56390 | 15248 ft | 348 kts | 6° |
| 2026-05-08 12:16 | 48.98204 | 0.56866 | 14853 ft | 346 kts | 6° |
| 2026-05-08 12:16 | 49.00585 | 0.57342 | 14459 ft | 344 kts | 6° |
| 2026-05-08 12:16 | 49.02952 | 0.57820 | 14070 ft | 342 kts | 6° |
| 2026-05-08 12:16 | 49.05310 | 0.58298 | 13660 ft | 341 kts | 6° |
| 2026-05-08 12:17 | 49.07625 | 0.58767 | 13250 ft | 339 kts | 6° |
| 2026-05-08 12:17 | 49.09954 | 0.59293 | 12866 ft | 337 kts | 12° |
| 2026-05-08 12:17 | 49.12087 | 0.60689 | 12567 ft | 335 kts | 36° |
| 2026-05-08 12:17 | 49.13636 | 0.63274 | 12359 ft | 330 kts | 56° |
| 2026-05-08 12:18 | 49.14930 | 0.66167 | 12104 ft | 329 kts | 54° |
| 2026-05-08 12:18 | 49.16325 | 0.69007 | 11847 ft | 330 kts | 52° |
| 2026-05-08 12:18 | 49.17719 | 0.71738 | 11598 ft | 331 kts | 52° |
| 2026-05-08 12:18 | 49.19167 | 0.74543 | 11347 ft | 331 kts | 52° |
| 2026-05-08 12:19 | 49.20573 | 0.77264 | 11097 ft | 329 kts | 52° |
| 2026-05-08 12:19 | 49.21983 | 0.79999 | 10859 ft | 327 kts | 52° |
| 2026-05-08 12:19 | 49.23405 | 0.82767 | 10616 ft | 326 kts | 52° |
| 2026-05-08 12:19 | 49.24784 | 0.85456 | 10378 ft | 325 kts | 53° |
| 2026-05-08 12:20 | 49.26183 | 0.88188 | 10282 ft | 317 kts | 53° |
| 2026-05-08 12:20 | 49.27504 | 0.90773 | 10180 ft | 308 kts | 53° |
| 2026-05-08 12:20 | 49.28807 | 0.93321 | 10071 ft | 299 kts | 53° |
| 2026-05-08 12:20 | 49.30072 | 0.95798 | 9959 ft | 290 kts | 53° |
| 2026-05-08 12:21 | 49.31303 | 0.98223 | 9847 ft | 288 kts | 53° |
| 2026-05-08 12:21 | 49.32525 | 1.00631 | 9739 ft | 285 kts | 53° |
| 2026-05-08 12:21 | 49.33739 | 1.03023 | 9626 ft | 284 kts | 53° |
| 2026-05-08 12:21 | 49.34948 | 1.05409 | 9466 ft | 283 kts | 53° |
| 2026-05-08 12:22 | 49.36149 | 1.07779 | 9360 ft | 280 kts | 53° |
| 2026-05-08 12:22 | 49.37338 | 1.10132 | 9249 ft | 279 kts | 53° |
| 2026-05-08 12:22 | 49.38530 | 1.12492 | 9107 ft | 279 kts | 53° |
| 2026-05-08 12:22 | 49.39716 | 1.14838 | 8972 ft | 278 kts | 53° |
| 2026-05-08 12:23 | 49.40900 | 1.17185 | 8853 ft | 277 kts | 53° |
| 2026-05-08 12:23 | 49.42082 | 1.19529 | 8712 ft | 278 kts | 53° |
| 2026-05-08 12:23 | 49.43266 | 1.21871 | 8611 ft | 278 kts | 53° |
| 2026-05-08 12:23 | 49.44449 | 1.24224 | 8483 ft | 279 kts | 53° |
| 2026-05-08 12:24 | 49.45637 | 1.26581 | 8328 ft | 279 kts | 53° |
| 2026-05-08 12:24 | 49.46824 | 1.28940 | 8225 ft | 279 kts | 53° |
| 2026-05-08 12:24 | 49.48011 | 1.31311 | 8097 ft | 279 kts | 53° |
| 2026-05-08 12:24 | 49.49192 | 1.33668 | 7946 ft | 277 kts | 52° |
| 2026-05-08 12:25 | 49.50362 | 1.36004 | 7825 ft | 275 kts | 52° |
| 2026-05-08 12:25 | 49.51525 | 1.38329 | 7714 ft | 274 kts | 52° |
| 2026-05-08 12:25 | 49.52685 | 1.40644 | 7568 ft | 271 kts | 52° |
| 2026-05-08 12:25 | 49.53818 | 1.42906 | 7428 ft | 263 kts | 52° |
| 2026-05-08 12:26 | 49.54810 | 1.45221 | 7261 ft | 257 kts | 68° |
| 2026-05-08 12:26 | 49.55110 | 1.47856 | 7197 ft | 243 kts | 89° |
| 2026-05-08 12:26 | 49.55086 | 1.50418 | 6888 ft | 239 kts | 91° |
| 2026-05-08 12:26 | 49.55037 | 1.52985 | 6513 ft | 239 kts | 91° |
| 2026-05-08 12:27 | 49.54987 | 1.55524 | 6117 ft | 237 kts | 91° |
| 2026-05-08 12:27 | 49.54934 | 1.58038 | 5761 ft | 233 kts | 91° |
| 2026-05-08 12:27 | 49.54879 | 1.60527 | 5365 ft | 232 kts | 91° |
| 2026-05-08 12:27 | 49.54822 | 1.62971 | 5125 ft | 223 kts | 91° |
| 2026-05-08 12:28 | 49.54758 | 1.65363 | 4838 ft | 224 kts | 92° |
| 2026-05-08 12:28 | 49.54691 | 1.67730 | 4637 ft | 222 kts | 91° |
| 2026-05-08 12:28 | 49.54627 | 1.70080 | 4491 ft | 216 kts | 91° |
| 2026-05-08 12:28 | 49.54564 | 1.72370 | 4394 ft | 214 kts | 92° |
| 2026-05-08 12:29 | 49.54514 | 1.74184 | 4269 ft | 218 kts | 91° |
| 2026-05-08 12:29 | 49.54445 | 1.76515 | 4209 ft | 218 kts | 91° |
| 2026-05-08 12:29 | 49.54384 | 1.78884 | 3997 ft | 222 kts | 91° |
| 2026-05-08 12:29 | 49.54327 | 1.81235 | 3869 ft | 218 kts | 91° |
| 2026-05-08 12:30 | 49.54267 | 1.83541 | 3725 ft | 213 kts | 91° |
| 2026-05-08 12:30 | 49.54211 | 1.85757 | 3627 ft | 201 kts | 91° |
| 2026-05-08 12:30 | 49.54155 | 1.87864 | 3521 ft | 193 kts | 91° |
| 2026-05-08 12:30 | 49.54101 | 1.89896 | 3374 ft | 186 kts | 92° |
| 2026-05-08 12:31 | 49.53795 | 1.91807 | 3232 ft | 188 kts | 114° |
| 2026-05-08 12:31 | 49.53070 | 1.93534 | 3007 ft | 193 kts | 123° |
| 2026-05-08 12:31 | 49.52340 | 1.95306 | 2745 ft | 197 kts | 120° |
| 2026-05-08 12:31 | 49.51600 | 1.97091 | 2471 ft | 197 kts | 122° |
| 2026-05-08 12:32 | 49.50851 | 1.98818 | 2195 ft | 191 kts | 122° |
| 2026-05-08 12:32 | 49.50142 | 2.00443 | 1967 ft | 176 kts | 122° |
| 2026-05-08 12:32 | 49.49473 | 2.01986 | 1713 ft | 169 kts | 121° |
| 2026-05-08 12:32 | 49.48841 | 2.03446 | 1475 ft | 157 kts | 121° |
| 2026-05-08 12:33 | 49.48254 | 2.04777 | 1289 ft | 148 kts | 124° |
| 2026-05-08 12:33 | 49.47701 | 2.06044 | 1173 ft | 141 kts | 120° |
| 2026-05-08 12:33 | 49.47168 | 2.07304 | 951 ft | 148 kts | 122° |
| 2026-05-08 12:33 | 49.46591 | 2.08612 | 728 ft | 148 kts | 121° |
| 2026-05-08 12:34 | 49.46039 | 2.09926 | 512 ft | 143 kts | 124° |
| 2026-05-08 12:34 | 49.45499 | 2.11154 | 350 ft | 131 kts | 126° |
| 2026-05-08 12:34 | 49.45080 | 2.12119 | 331 ft | 80 kts | 123° |
| 2026-05-08 12:34 | 49.44898 | 2.12533 | 322 ft | 7 kts | 122° |
| 2026-05-08 12:35 | 49.44886 | 2.12579 | 320 ft | 3 kts | 165° |
| 2026-05-08 12:35 | 49.44878 | 2.12557 | 321 ft | 3 kts | 282° |
| 2026-05-08 12:35 | 49.44890 | 2.12532 | 321 ft | 4 kts | 304° |
| 2026-05-08 12:35 | 49.44914 | 2.12484 | 324 ft | 9 kts | 309° |
| 2026-05-08 12:36 | 49.44964 | 2.12384 | 324 ft | 15 kts | 305° |
| 2026-05-08 12:36 | 49.45034 | 2.12222 | 331 ft | 21 kts | 304° |
| 2026-05-08 12:36 | 49.45126 | 2.12010 | 332 ft | 27 kts | 303° |
| 2026-05-08 12:36 | 49.45238 | 2.11753 | 332 ft | 29 kts | 304° |
| 2026-05-08 12:37 | 49.45348 | 2.11500 | 333 ft | 28 kts | 302° |
| 2026-05-08 12:37 | 49.45451 | 2.11263 | 348 ft | 26 kts | 303° |
| 2026-05-08 12:37 | 49.45548 | 2.11041 | 349 ft | 24 kts | 303° |
| 2026-05-08 12:37 | 49.45621 | 2.10885 | 354 ft | 12 kts | 329° |
| 2026-05-08 12:38 | 49.45701 | 2.10918 | 356 ft | 12 kts | 28° |
| 2026-05-08 12:38 | 49.45770 | 2.10975 | 352 ft | 9 kts | 28° |
| 2026-05-08 12:38 | 49.45783 | 2.11048 | 348 ft | 8 kts | 112° |
| 2026-05-08 12:38 | 49.45754 | 2.11121 | 350 ft | 8 kts | 124° |
| 2026-05-08 12:39 | 49.45747 | 2.11179 | 351 ft | 5 kts | 57° |
| 2026-05-08 12:39 | 49.45772 | 2.11211 | 350 ft | 4 kts | 33° |
| 2026-05-08 12:39 | 49.45783 | 2.11223 | 348 ft | 0 kts | 33° |